Aviation Digital Data Service (ADDS)

Output produced by METARs form (0823 UTC 18 September 2021)
found at http://www.aviationweather.gov/metar/data/
 
Forecast for: VTBU (RAYONG/U-TAPHAO , TH)
Text: TAF VTBU 180500Z 1806/1906 17008KT 9999 FEW020
Forecast period: 0600 to 1600 UTC 18 September 2021
Forecast type: FROM: standard forecast or significant change
Winds: from the S (170 degrees) at 9 MPH (8 knots; 4.1 m/s)
Visibility: 6 or more miles (10+ km)
Ceiling: at least 12,000 feet AGL
Clouds: few clouds at 2000 feet AGL
Weather: no significant weather forecast for this period
Text: BECMG 1816/1818 35004KT
Forecast period: 1600 UTC 18 September 2021 to 0000 UTC 19 September 2021
Forecast type: BECOMING: Conditions expected to become as follows by 1800 UTC 18 September 2021
Winds: from the N (350 degrees) at 5 MPH (4 knots; 2.1 m/s)
Visibility: 6 or more miles (10+ km)
Ceiling: at least 12,000 feet AGL
Clouds: few clouds at 2000 feet AGL
Weather: no significant weather forecast for this period
Text: BECMG 1900/1902 17008KT
Forecast period: 0000 to 0600 UTC 19 September 2021
Forecast type: BECOMING: Conditions expected to become as follows by 0200 UTC 19 September 2021
Winds: from the S (170 degrees) at 9 MPH (8 knots; 4.1 m/s)
Visibility: 6 or more miles (10+ km)
Ceiling: at least 12,000 feet AGL
Clouds: few clouds at 2000 feet AGL
Weather: no significant weather forecast for this period